createdAt,value
2019-04-30T00:00:34.753Z,99.99
2019-04-30T00:01:36.167Z,99.99
2019-04-30T00:02:35.665Z,99.99
2019-04-30T00:03:35.228Z,99.99
2019-04-30T00:07:38.954Z,99.99
2019-04-30T00:08:41.492Z,99.99
2019-04-30T00:09:41.413Z,99.99
2019-04-30T00:12:30.904Z,99.99
2019-04-30T00:13:28.615Z,99.99
2019-04-30T00:14:37.255Z,99.99
2019-04-30T00:15:28.478Z,99.99
2019-04-30T00:16:31.120Z,99.99
2019-04-30T00:17:28.299Z,99.99
2019-04-30T00:18:30.850Z,99.99
2019-04-30T00:20:30.018Z,99.99
2019-04-30T00:21:27.981Z,99.99
2019-04-30T00:22:33.930Z,99.99
2019-04-30T00:23:30.726Z,99.99
2019-04-30T00:24:27.844Z,99.99
2019-04-30T00:25:28.644Z,99.99
2019-04-30T00:26:27.587Z,99.99
2019-04-30T00:27:30.131Z,99.99
2019-04-30T00:28:27.432Z,99.99
2019-04-30T00:29:30.826Z,99.99
2019-04-30T00:30:27.275Z,99.99
2019-04-30T00:31:27.526Z,99.99
2019-04-30T00:32:27.117Z,99.99
2019-04-30T00:33:27.765Z,99.99
2019-04-30T00:34:30.920Z,99.99
2019-04-30T00:35:26.883Z,99.99
2019-04-30T00:36:29.081Z,99.99
2019-04-30T00:37:26.726Z,99.99
2019-04-30T00:38:29.567Z,99.99
2019-04-30T00:39:27.299Z,99.99
2019-04-30T00:40:30.042Z,99.99
2019-04-30T00:41:26.424Z,99.99
2019-04-30T00:42:28.714Z,99.99
2019-04-30T00:43:26.258Z,99.99
2019-04-30T00:44:28.328Z,99.99
2019-04-30T00:45:26.103Z,99.99
2019-04-30T00:46:29.376Z,99.99
2019-04-30T00:47:25.946Z,99.99
2019-04-30T00:48:29.635Z,99.99
2019-04-30T00:49:26.691Z,99.99
2019-04-30T00:50:29.063Z,99.99
2019-04-30T00:51:26.215Z,99.99
2019-04-30T00:52:29.430Z,99.99
2019-04-30T00:53:26.228Z,99.99
2019-04-30T00:54:27.947Z,99.99
2019-04-30T00:55:25.326Z,99.99
2019-04-30T00:56:28.161Z,99.99
2019-04-30T00:57:26.506Z,99.99
2019-04-30T00:58:30.286Z,99.99
2019-04-30T00:59:25.050Z,99.99
2019-04-30T01:00:29.450Z,99.99
2019-04-30T01:01:25.322Z,99.99
2019-04-30T01:02:30.470Z,99.99
2019-04-30T01:03:25.574Z,99.99
2019-04-30T01:04:28.092Z,99.99
2019-04-30T01:08:10.196Z,99.99
2019-04-30T01:09:10.118Z,99.99
2019-04-30T01:10:10.040Z,99.99
2019-04-30T01:11:09.961Z,99.99
2019-04-30T01:12:09.886Z,99.99
2019-04-30T01:13:11.999Z,99.99
2019-04-30T01:14:09.876Z,99.99
2019-04-30T01:15:11.161Z,99.99
2019-04-30T01:16:09.951Z,99.99
2019-04-30T01:17:12.224Z,99.99
2019-04-30T01:18:09.431Z,99.99
2019-04-30T01:19:21.122Z,99.99
2019-04-30T01:20:09.462Z,99.99
2019-04-30T01:21:11.205Z,99.99
2019-04-30T01:22:09.153Z,99.99
2019-04-30T01:23:11.294Z,99.99
2019-04-30T01:24:09.041Z,99.99
2019-04-30T01:25:13.270Z,99.99
2019-04-30T01:26:08.843Z,99.99
2019-04-30T01:27:10.684Z,99.99
2019-04-30T01:28:10.740Z,99.99
2019-04-30T01:29:10.197Z,99.99
2019-04-30T01:30:08.708Z,99.99
2019-04-30T01:31:08.939Z,99.99
2019-04-30T01:32:12.212Z,99.99
2019-04-30T01:33:09.140Z,99.99
2019-04-30T01:34:12.411Z,99.99
2019-04-30T01:35:08.908Z,99.99
2019-04-30T01:36:09.536Z,99.99
2019-04-30T01:37:08.763Z,99.99
2019-04-30T01:38:11.100Z,99.99
2019-04-30T01:39:09.473Z,99.99
2019-04-30T01:40:13.686Z,99.99
2019-04-30T01:41:09.319Z,99.99
2019-04-30T01:42:11.270Z,99.99
2019-04-30T01:43:09.123Z,99.99
2019-04-30T01:44:08.684Z,99.99
2019-04-30T01:45:08.749Z,99.99
2019-04-30T01:46:12.222Z,99.99
2019-04-30T01:47:08.677Z,99.99
2019-04-30T01:48:10.707Z,99.99
2019-04-30T01:49:08.631Z,99.99
2019-04-30T01:50:06.921Z,99.99
2019-04-30T01:51:08.847Z,99.99
2019-04-30T01:52:06.766Z,99.99
2019-04-30T01:53:11.497Z,99.99
2019-04-30T01:54:06.611Z,99.99
2019-04-30T01:55:06.534Z,99.99
2019-04-30T01:56:06.454Z,99.99
2019-04-30T01:57:06.376Z,99.99
2019-04-30T01:58:06.299Z,99.99
2019-04-30T01:59:06.222Z,99.99
2019-04-30T02:00:06.304Z,99.99
2019-04-30T02:01:06.069Z,99.99
2019-04-30T02:02:05.988Z,99.99
2019-04-30T02:03:05.911Z,99.99
2019-04-30T02:04:05.833Z,99.99
2019-04-30T02:05:05.781Z,99.99
2019-04-30T02:06:05.677Z,99.99
2019-04-30T02:07:05.600Z,99.99
2019-04-30T02:08:05.523Z,99.99
2019-04-30T02:09:05.444Z,99.99
2019-04-30T02:10:05.366Z,99.99
2019-04-30T02:11:05.288Z,99.99
2019-04-30T02:12:05.211Z,99.99
2019-04-30T02:13:05.159Z,99.99
2019-04-30T02:14:05.055Z,99.99
2019-04-30T02:15:05.077Z,99.99
2019-04-30T02:16:04.905Z,99.99
2019-04-30T02:22:56.135Z,99.99
2019-04-30T02:23:56.058Z,99.99
2019-04-30T02:24:55.978Z,99.99
2019-04-30T02:25:55.900Z,99.99
2019-04-30T02:26:55.822Z,99.99
2019-04-30T02:27:55.742Z,99.99
2019-04-30T02:28:55.662Z,99.99
2019-04-30T02:29:55.584Z,99.99
2019-04-30T02:30:55.506Z,99.99
2019-04-30T02:31:55.425Z,99.99
2019-04-30T02:32:55.346Z,99.99
2019-04-30T02:33:55.268Z,99.99
2019-04-30T02:34:55.287Z,99.99
2019-04-30T02:35:55.111Z,99.99
2019-04-30T02:36:55.032Z,99.99
2019-04-30T02:37:54.950Z,99.99
2019-04-30T02:38:54.869Z,99.99
2019-04-30T02:39:54.789Z,99.99
2019-04-30T02:40:54.710Z,99.99
2019-04-30T02:41:54.630Z,99.99
2019-04-30T02:43:54.468Z,99.99
2019-04-30T02:44:54.390Z,99.99
2019-04-30T02:45:54.415Z,99.99
2019-04-30T02:46:54.233Z,99.99
2019-04-30T02:47:54.150Z,99.99
2019-04-30T02:48:54.076Z,99.99
2019-04-30T02:50:10.151Z,99.99
2019-04-30T02:50:53.913Z,99.99
2019-04-30T02:51:53.834Z,99.99
2019-04-30T02:52:53.784Z,99.99
2019-04-30T02:53:53.678Z,99.99
2019-04-30T02:54:53.599Z,99.99
2019-04-30T02:55:53.522Z,99.99
2019-04-30T02:56:53.541Z,99.99
2019-04-30T02:57:53.364Z,99.99
2019-04-30T02:58:53.317Z,99.99
2019-04-30T02:59:53.206Z,99.99
2019-04-30T03:00:53.131Z,99.99
2019-04-30T03:01:53.050Z,99.99
2019-04-30T03:02:52.975Z,99.99
2019-04-30T03:03:52.892Z,99.99
2019-04-30T03:04:52.818Z,99.99
2019-04-30T03:05:52.739Z,99.99
2019-04-30T03:06:52.658Z,99.99
2019-04-30T03:07:53.487Z,99.99
2019-04-30T03:08:52.506Z,99.99
2019-04-30T03:09:52.427Z,99.99
2019-04-30T03:10:52.902Z,99.99
2019-04-30T03:11:52.369Z,99.99
2019-04-30T03:12:52.196Z,99.99
2019-04-30T03:13:52.125Z,99.99
2019-04-30T03:14:52.035Z,99.99
2019-04-30T03:15:51.957Z,99.99
2019-04-30T03:16:53.188Z,99.99
2019-04-30T03:17:51.809Z,99.99
2019-04-30T03:18:51.724Z,99.99
2019-04-30T03:19:51.646Z,99.99
2019-04-30T03:20:51.568Z,99.99
2019-04-30T03:21:51.492Z,99.99
2019-04-30T03:22:51.410Z,99.99
2019-04-30T03:23:51.332Z,99.99
2019-04-30T03:24:51.257Z,99.99
2019-04-30T03:25:51.178Z,99.99
2019-04-30T03:26:51.100Z,99.99
2019-04-30T03:27:51.032Z,99.99
2019-04-30T03:28:50.944Z,99.99
2019-04-30T03:29:50.908Z,99.99
2019-04-30T03:30:56.758Z,99.99
2019-04-30T03:31:52.426Z,99.99
2019-04-30T03:32:56.678Z,99.99
2019-04-30T03:33:52.252Z,99.99
2019-04-30T03:34:51.750Z,99.99
2019-04-30T03:35:53.978Z,99.99
2019-04-30T03:36:50.608Z,99.99
2019-04-30T03:37:50.245Z,99.99
2019-04-30T03:38:50.306Z,99.99
2019-04-30T03:39:50.084Z,99.99
2019-04-30T03:40:50.360Z,99.99
2019-04-30T03:41:50.423Z,99.99
2019-04-30T03:42:49.856Z,99.99
2019-04-30T03:43:50.405Z,99.99
2019-04-30T03:44:49.938Z,99.99
2019-04-30T03:45:50.033Z,99.99
2019-04-30T03:46:49.890Z,99.99
2019-04-30T03:47:50.402Z,99.99
2019-04-30T03:48:50.375Z,99.99
2019-04-30T03:49:49.953Z,99.99
2019-04-30T03:50:56.360Z,99.99
2019-04-30T03:51:49.847Z,99.99
2019-04-30T03:52:50.356Z,99.99
2019-04-30T03:53:50.148Z,99.99
2019-04-30T03:54:49.559Z,99.99
2019-04-30T03:55:50.651Z,99.99
2019-04-30T03:56:50.133Z,99.99
2019-04-30T03:59:26.196Z,99.99
2019-04-30T04:00:26.115Z,99.99
2019-04-30T04:01:26.038Z,99.99
2019-04-30T04:02:25.959Z,99.99
2019-04-30T04:03:25.890Z,99.99
2019-04-30T04:04:25.808Z,99.99
2019-04-30T04:05:25.725Z,99.99
2019-04-30T04:06:25.667Z,99.99
2019-04-30T04:07:25.598Z,99.99
2019-04-30T04:08:25.492Z,99.99
2019-04-30T04:09:25.630Z,99.99
2019-04-30T04:10:25.337Z,99.99
2019-04-30T04:11:25.258Z,99.99
2019-04-30T04:12:25.181Z,99.99
2019-04-30T04:13:25.106Z,99.99
2019-04-30T04:14:25.027Z,99.99
2019-04-30T04:15:24.945Z,99.99
2019-04-30T04:16:24.868Z,99.99
2019-04-30T04:17:24.789Z,99.99
2019-04-30T04:18:24.712Z,99.99
2019-04-30T04:19:24.636Z,99.99
2019-04-30T04:20:24.557Z,99.99
2019-04-30T04:21:24.480Z,99.99
2019-04-30T04:22:24.402Z,99.99
2019-04-30T04:23:24.373Z,99.99
2019-04-30T04:24:24.248Z,99.99
2019-04-30T04:25:24.167Z,99.99
2019-04-30T04:26:26.720Z,99.99
2019-04-30T04:27:24.016Z,99.99
2019-04-30T04:28:24.037Z,99.99
2019-04-30T04:29:23.854Z,99.99
2019-04-30T04:30:23.781Z,99.99
2019-04-30T04:31:23.700Z,99.99
2019-04-30T04:32:24.446Z,99.99
2019-04-30T04:33:23.544Z,99.99
2019-04-30T04:34:23.471Z,99.99
2019-04-30T04:35:23.389Z,99.99
2019-04-30T04:36:23.308Z,99.99
2019-04-30T04:37:23.232Z,99.99
2019-04-30T04:38:23.154Z,99.99
2019-04-30T04:39:23.077Z,99.99
2019-04-30T04:40:22.997Z,99.99
2019-04-30T04:41:22.921Z,99.99
2019-04-30T04:42:22.843Z,99.99
2019-04-30T04:43:22.765Z,99.99
2019-04-30T04:44:22.686Z,99.99
2019-04-30T04:45:22.610Z,99.99
2019-04-30T04:46:22.532Z,99.99
2019-04-30T04:47:22.453Z,99.99
2019-04-30T04:48:23.230Z,99.99
2019-04-30T04:49:22.299Z,99.99
2019-04-30T04:50:22.226Z,99.99
2019-04-30T04:51:36.815Z,99.99
2019-04-30T04:52:22.411Z,99.99
2019-04-30T04:54:39.966Z,99.99
2019-04-30T04:57:12.798Z,99.99
2019-04-30T04:57:59.616Z,99.99
2019-04-30T04:58:56.759Z,99.99
2019-04-30T04:59:56.683Z,99.99
2019-04-30T05:00:59.125Z,99.99
2019-04-30T05:01:56.525Z,99.99
2019-04-30T05:02:56.449Z,99.99
2019-04-30T05:03:56.370Z,99.99
2019-04-30T05:04:56.290Z,99.99
2019-04-30T05:05:59.991Z,99.99
2019-04-30T05:06:56.137Z,99.99
2019-04-30T05:07:56.058Z,99.99
2019-04-30T05:08:55.979Z,99.99
2019-04-30T05:09:55.902Z,99.99
2019-04-30T05:10:55.826Z,99.99
2019-04-30T05:11:55.746Z,99.99
2019-04-30T05:12:55.667Z,99.99
2019-04-30T05:13:55.592Z,99.99
2019-04-30T05:14:55.513Z,99.99
2019-04-30T05:15:55.442Z,99.99
2019-04-30T05:16:55.360Z,99.99
2019-04-30T05:17:55.279Z,99.99
2019-04-30T05:18:55.210Z,99.99
2019-04-30T05:19:55.126Z,99.99
2019-04-30T05:20:55.050Z,99.99
2019-04-30T05:21:54.969Z,99.99
2019-04-30T05:22:58.510Z,99.99
2019-04-30T05:23:54.813Z,99.99
2019-04-30T05:24:54.736Z,99.99
2019-04-30T05:25:54.659Z,99.99
2019-04-30T05:26:54.579Z,99.99
2019-04-30T05:27:54.501Z,99.99
2019-04-30T05:28:54.424Z,99.99
2019-04-30T05:29:54.347Z,99.99
2019-04-30T05:30:54.271Z,99.99
2019-04-30T05:31:54.192Z,99.99
2019-04-30T05:32:54.114Z,99.99
2019-04-30T05:33:54.037Z,99.99
2019-04-30T05:34:53.966Z,99.99
2019-04-30T05:35:53.887Z,99.99
2019-04-30T05:36:53.804Z,99.99
2019-04-30T05:37:53.727Z,99.99
2019-04-30T05:38:53.650Z,99.99
2019-04-30T05:39:53.573Z,99.99
2019-04-30T05:40:56.215Z,99.99
2019-04-30T05:41:53.416Z,99.99
2019-04-30T05:42:53.341Z,99.99
2019-04-30T05:43:55.885Z,99.99
2019-04-30T05:44:53.183Z,99.99
2019-04-30T05:45:53.107Z,99.99
2019-04-30T05:46:53.031Z,99.99
2019-04-30T05:47:52.952Z,99.99
2019-04-30T05:48:52.874Z,99.99
2019-04-30T05:49:52.798Z,99.99
2019-04-30T05:50:52.720Z,99.99
2019-04-30T05:51:55.679Z,99.99
2019-04-30T05:52:52.565Z,99.99
2019-04-30T05:53:52.488Z,99.99
2019-04-30T05:54:52.411Z,99.99
2019-04-30T05:55:52.334Z,99.99
2019-04-30T05:56:52.259Z,99.99
2019-04-30T05:57:56.385Z,99.99
2019-04-30T05:58:52.102Z,99.99
2019-04-30T05:59:52.024Z,99.99
2019-04-30T06:00:51.947Z,99.99
2019-04-30T06:01:51.868Z,99.99
2019-04-30T06:02:51.796Z,99.99
2019-04-30T06:03:51.714Z,99.99
2019-04-30T06:04:51.637Z,99.99
2019-04-30T06:05:51.561Z,99.99
2019-04-30T06:06:51.485Z,99.99
2019-04-30T06:07:52.173Z,99.99
2019-04-30T06:08:51.329Z,99.99
2019-04-30T06:09:51.256Z,99.99
2019-04-30T06:10:51.856Z,99.99
2019-04-30T06:11:51.094Z,99.99
2019-04-30T06:12:51.020Z,99.99
2019-04-30T06:13:50.941Z,99.99
2019-04-30T06:14:51.854Z,99.99
2019-04-30T06:15:50.788Z,99.99
2019-04-30T06:16:51.727Z,99.99
2019-04-30T06:18:00.003Z,99.99
2019-04-30T06:18:50.552Z,99.99
2019-04-30T06:19:51.409Z,99.99
2019-04-30T06:20:50.396Z,99.99
2019-04-30T06:21:50.319Z,99.99
2019-04-30T06:22:52.210Z,99.99
2019-04-30T06:23:50.166Z,99.99
2019-04-30T06:24:50.086Z,99.99
2019-04-30T06:25:57.501Z,99.99
2019-04-30T06:26:49.938Z,99.99
2019-04-30T06:27:49.856Z,99.99
2019-04-30T06:28:49.795Z,99.99
2019-04-30T06:29:49.700Z,99.99
2019-04-30T06:30:49.622Z,99.99
2019-04-30T06:31:49.544Z,99.99
2019-04-30T06:32:49.677Z,99.99
2019-04-30T06:33:49.389Z,99.99
2019-04-30T06:34:49.842Z,99.99
2019-04-30T06:35:49.377Z,99.99
2019-04-30T06:36:53.379Z,99.99
2019-04-30T06:37:49.079Z,99.99
2019-04-30T06:38:49.098Z,99.99
2019-04-30T06:39:50.002Z,99.99
2019-04-30T06:40:48.985Z,99.99
2019-04-30T06:41:49.405Z,99.99
2019-04-30T06:42:49.539Z,99.99
2019-04-30T06:43:48.888Z,99.99
2019-04-30T06:44:49.460Z,99.99
2019-04-30T06:45:51.055Z,99.99
2019-04-30T06:46:48.870Z,99.99
2019-04-30T06:47:48.919Z,99.99
2019-04-30T06:48:50.839Z,99.99
2019-04-30T06:53:11.282Z,99.99
2019-04-30T06:54:11.212Z,99.99
2019-04-30T06:55:11.130Z,99.99
2019-04-30T06:57:29.523Z,99.99
2019-04-30T06:59:30.969Z,99.99
2019-04-30T07:00:33.606Z,99.99
2019-04-30T07:01:30.813Z,99.99
2019-04-30T07:02:31.034Z,99.99
2019-04-30T07:03:30.657Z,99.99
2019-04-30T07:04:30.578Z,99.99
2019-04-30T07:05:30.502Z,99.99
2019-04-30T07:06:36.714Z,99.99
2019-04-30T07:07:36.981Z,99.99
2019-04-30T07:08:38.960Z,99.99
2019-04-30T07:09:33.589Z,99.99
2019-04-30T07:10:30.114Z,99.99
2019-04-30T07:11:30.286Z,99.99
2019-04-30T07:12:30.922Z,99.99
2019-04-30T07:13:29.880Z,99.99
2019-04-30T07:14:29.803Z,99.99
2019-04-30T07:15:29.767Z,99.99
2019-04-30T07:16:29.967Z,99.99
2019-04-30T07:17:29.571Z,99.99
2019-04-30T07:18:29.495Z,99.99
2019-04-30T07:19:34.710Z,99.99
2019-04-30T07:20:29.339Z,99.99
2019-04-30T07:21:31.682Z,99.99
2019-04-30T07:22:39.679Z,99.99
2019-04-30T07:23:29.107Z,99.99
2019-04-30T07:24:29.623Z,99.99
2019-04-30T07:25:29.394Z,99.99
2019-04-30T07:26:29.062Z,99.46
2019-04-30T07:27:30.181Z,99.75
2019-04-30T07:28:43.231Z,97.17
2019-04-30T07:29:29.545Z,98.80
2019-04-30T07:30:30.711Z,99.56
2019-04-30T07:31:29.596Z,97.08
2019-04-30T07:32:28.851Z,99.99
2019-04-30T07:33:29.592Z,98.08
2019-04-30T07:34:29.710Z,94.98
2019-04-30T07:35:29.221Z,95.17
2019-04-30T07:36:43.307Z,95.65
2019-04-30T07:37:29.257Z,94.79
2019-04-30T07:38:29.461Z,94.79
2019-04-30T07:39:31.173Z,94.37
2019-04-30T07:40:29.214Z,95.12
2019-04-30T07:41:30.924Z,94.74
2019-04-30T07:42:29.449Z,94.65
2019-04-30T07:43:28.910Z,93.98
2019-04-30T07:44:35.514Z,93.51
2019-04-30T07:45:31.605Z,93.79
2019-04-30T07:46:29.776Z,93.88
2019-04-30T07:47:29.624Z,94.74
2019-04-30T07:48:27.200Z,95.12
2019-04-30T07:49:46.489Z,96.56
2019-04-30T07:50:28.162Z,95.03
2019-04-30T07:51:30.892Z,94.27
2019-04-30T07:52:30.038Z,96.08
2019-04-30T07:53:26.816Z,95.98
2019-04-30T07:54:26.740Z,96.36
2019-04-30T07:55:26.663Z,97.41
2019-04-30T07:56:29.273Z,95.27
2019-04-30T07:57:26.509Z,95.27
2019-04-30T07:58:26.431Z,94.22
2019-04-30T07:59:26.356Z,94.32
2019-04-30T08:00:26.277Z,94.27
2019-04-30T08:01:26.199Z,94.37
2019-04-30T08:02:26.123Z,95.61
2019-04-30T08:03:26.324Z,94.74
2019-04-30T08:04:25.969Z,94.98
2019-04-30T08:05:25.892Z,93.55
2019-04-30T08:06:25.883Z,92.88
2019-04-30T08:07:25.772Z,92.79
2019-04-30T08:08:26.011Z,92.22
2019-04-30T08:09:25.584Z,93.27
2019-04-30T08:10:25.514Z,93.17
2019-04-30T08:11:26.488Z,94.70
2019-04-30T08:12:31.025Z,98.61
2019-04-30T08:13:25.873Z,96.70
2019-04-30T08:14:25.202Z,95.08
2019-04-30T08:15:25.124Z,93.74
2019-04-30T08:16:25.046Z,93.17
2019-04-30T08:17:24.973Z,93.17
2019-04-30T08:18:24.893Z,91.93
2019-04-30T08:19:24.817Z,92.50
2019-04-30T08:20:24.740Z,92.41
2019-04-30T08:21:24.663Z,90.41
2019-04-30T08:22:24.590Z,92.12
2019-04-30T08:23:34.022Z,91.83
2019-04-30T08:24:24.433Z,92.12
2019-04-30T08:25:24.356Z,92.22
2019-04-30T08:26:24.278Z,92.41
2019-04-30T08:27:24.202Z,93.27
2019-04-30T08:28:24.125Z,90.79
2019-04-30T08:29:24.049Z,90.59
2019-04-30T08:30:26.870Z,90.79
2019-04-30T08:31:23.895Z,92.32
2019-04-30T08:32:23.818Z,92.26
2019-04-30T08:33:23.741Z,91.41
2019-04-30T08:34:23.664Z,92.22
2019-04-30T08:35:23.589Z,91.02
2019-04-30T08:36:23.511Z,89.78
2019-04-30T08:37:23.434Z,90.83
2019-04-30T08:38:23.374Z,92.74
2019-04-30T08:39:23.286Z,91.78
2019-04-30T08:40:23.203Z,92.55
2019-04-30T08:41:23.128Z,91.98
2019-04-30T08:42:31.685Z,89.02
2019-04-30T08:43:22.994Z,89.78
2019-04-30T08:44:22.897Z,89.88
2019-04-30T08:45:22.823Z,89.88
2019-04-30T08:46:22.745Z,89.31
2019-04-30T08:47:22.669Z,87.78
2019-04-30T08:48:22.592Z,87.73
2019-04-30T08:49:22.759Z,86.63
2019-04-30T08:50:22.441Z,85.11
2019-04-30T08:51:22.365Z,85.49
2019-04-30T08:52:22.289Z,84.53
2019-04-30T08:53:29.419Z,83.48
2019-04-30T08:54:22.135Z,83.01
2019-04-30T08:55:22.323Z,82.24
2019-04-30T08:56:22.113Z,81.86
2019-04-30T08:57:21.923Z,83.11
2019-04-30T08:58:21.830Z,82.24
2019-04-30T08:59:21.754Z,82.24
2019-04-30T09:00:21.680Z,80.33
2019-04-30T09:01:21.603Z,84.48
2019-04-30T09:02:21.528Z,82.53
2019-04-30T09:03:21.450Z,82.00
2019-04-30T09:04:21.373Z,81.96
2019-04-30T09:05:21.296Z,81.77
2019-04-30T09:06:21.220Z,80.91
2019-04-30T09:07:21.147Z,80.53
2019-04-30T09:08:21.068Z,82.67
2019-04-30T09:09:20.991Z,82.38
2019-04-30T09:10:20.915Z,81.58
2019-04-30T09:11:27.334Z,80.15
2019-04-30T09:12:20.763Z,83.24
2019-04-30T09:13:20.685Z,85.11
2019-04-30T09:14:20.610Z,83.24
2019-04-30T09:15:20.539Z,82.67
2019-04-30T09:16:20.460Z,81.29
2019-04-30T09:17:20.386Z,81.38
2019-04-30T09:18:20.305Z,82.06
2019-04-30T09:19:21.317Z,82.86
2019-04-30T09:20:20.155Z,83.14
2019-04-30T09:21:20.077Z,84.48
2019-04-30T09:22:20.000Z,84.29
2019-04-30T09:23:19.925Z,84.00
2019-04-30T09:24:19.849Z,84.29
2019-04-30T09:25:19.773Z,85.05
2019-04-30T09:26:19.698Z,86.91
2019-04-30T09:27:19.751Z,83.76
2019-04-30T09:28:19.932Z,83.47
2019-04-30T09:29:19.468Z,82.57
2019-04-30T09:30:19.392Z,82.38
2019-04-30T09:31:19.855Z,81.71
2019-04-30T09:32:19.480Z,80.95
2019-04-30T09:33:19.551Z,81.81
2019-04-30T09:35:09.645Z,80.09
2019-04-30T09:36:06.500Z,82.52
2019-04-30T09:37:06.423Z,83.86
2019-04-30T09:38:06.348Z,84.43
2019-04-30T09:39:06.272Z,81.66
2019-04-30T09:40:53.867Z,80.04
2019-04-30T09:41:53.790Z,80.32
2019-04-30T09:42:53.712Z,79.46
2019-04-30T09:43:53.637Z,79.65
2019-04-30T09:44:54.937Z,79.27
2019-04-30T09:45:53.486Z,79.65
2019-04-30T09:46:53.509Z,80.22
2019-04-30T09:47:53.333Z,79.94
2019-04-30T09:48:53.259Z,79.46
2019-04-30T09:49:53.181Z,80.13
2019-04-30T09:52:13.556Z,79.46
2019-04-30T09:53:13.388Z,80.90
2019-04-30T09:54:12.526Z,79.46
2019-04-30T09:55:10.521Z,79.65
2019-04-30T09:56:10.307Z,80.41
2019-04-30T09:57:11.435Z,79.85
2019-04-30T09:58:17.049Z,79.46
2019-04-30T09:59:10.084Z,78.51
2019-04-30T10:00:10.002Z,78.99
2019-04-30T10:01:09.928Z,78.60
2019-04-30T10:02:09.853Z,77.84
2019-04-30T10:03:10.769Z,77.08
2019-04-30T10:04:10.519Z,77.36
2019-04-30T10:05:09.916Z,77.84
2019-04-30T10:06:09.548Z,79.02
2019-04-30T10:07:09.701Z,79.31
2019-04-30T10:08:09.396Z,76.73
2019-04-30T10:09:09.716Z,75.78
2019-04-30T10:10:11.268Z,74.82
2019-04-30T10:12:09.719Z,77.40
2019-04-30T10:13:09.019Z,76.35
2019-04-30T10:14:08.944Z,73.19
2019-04-30T10:15:09.188Z,71.92
2019-04-30T10:16:09.751Z,72.97
2019-04-30T10:17:09.512Z,75.20
2019-04-30T10:18:08.643Z,75.68
2019-04-30T10:19:10.279Z,75.30
2019-04-30T10:20:08.491Z,75.49
2019-04-30T10:21:09.084Z,75.01
2019-04-30T10:22:08.939Z,73.71
2019-04-30T10:23:09.488Z,72.66
2019-04-30T10:24:14.860Z,73.48
2019-04-30T10:25:09.243Z,73.99
2019-04-30T10:26:08.041Z,74.38
2019-04-30T10:27:12.901Z,72.66
2019-04-30T10:28:09.756Z,72.66
2019-04-30T10:29:07.829Z,72.28
2019-04-30T10:30:09.374Z,73.52
2019-04-30T10:31:07.666Z,73.99
2019-04-30T10:32:08.818Z,74.70
2019-04-30T10:33:09.825Z,73.36
2019-04-30T10:34:09.572Z,72.41
2019-04-30T10:35:07.367Z,70.17
2019-04-30T10:36:09.283Z,69.98
2019-04-30T10:37:08.974Z,71.16
2019-04-30T10:38:07.140Z,70.21
2019-04-30T10:39:07.075Z,68.87
2019-04-30T10:40:06.992Z,68.01
2019-04-30T10:41:08.809Z,71.07
2019-04-30T10:42:06.841Z,70.30
2019-04-30T10:43:08.802Z,68.87
2019-04-30T10:44:08.767Z,68.96
2019-04-30T10:45:06.616Z,70.97
2019-04-30T10:46:06.543Z,71.83
2019-04-30T10:47:06.469Z,71.64
2019-04-30T10:48:06.393Z,71.55
2019-04-30T10:49:06.322Z,72.79
2019-04-30T10:50:06.245Z,75.02
2019-04-30T10:51:06.171Z,74.93
2019-04-30T10:54:31.763Z,69.86
2019-04-30T10:55:31.670Z,69.19
2019-04-30T10:56:31.595Z,69.48
2019-04-30T10:57:31.522Z,68.62
2019-04-30T10:58:31.451Z,69.29
2019-04-30T10:59:31.375Z,67.85
2019-04-30T11:00:31.302Z,69.09
2019-04-30T11:01:31.226Z,68.80
2019-04-30T11:02:31.336Z,68.42
2019-04-30T11:03:31.080Z,68.80
2019-04-30T11:04:31.007Z,67.60
2019-04-30T11:05:30.932Z,67.98
2019-04-30T11:06:30.859Z,69.32
2019-04-30T11:07:30.784Z,67.98
2019-04-30T11:08:30.712Z,65.30
2019-04-30T11:09:31.062Z,64.43
2019-04-30T11:10:30.565Z,63.19
2019-04-30T11:11:30.708Z,62.90
2019-04-30T11:12:30.420Z,63.00
2019-04-30T11:13:30.348Z,63.19
2019-04-30T11:14:30.274Z,63.22
2019-04-30T11:15:30.199Z,62.90
2019-04-30T11:16:30.127Z,63.51
2019-04-30T11:17:33.088Z,64.66
2019-04-30T11:18:30.263Z,66.29
2019-04-30T11:19:30.118Z,65.05
2019-04-30T11:20:30.142Z,64.66
2019-04-30T11:21:30.005Z,62.46
2019-04-30T11:22:29.798Z,62.36
2019-04-30T11:23:29.991Z,62.36
2019-04-30T11:24:36.513Z,63.32
2019-04-30T11:25:31.363Z,64.28
2019-04-30T11:26:31.992Z,65.46
2019-04-30T11:27:30.630Z,62.77
2019-04-30T11:28:29.505Z,62.52
2019-04-30T11:29:30.850Z,61.37
2019-04-30T11:30:29.890Z,58.62
2019-04-30T11:31:29.179Z,58.04
2019-04-30T11:32:29.168Z,56.89
2019-04-30T11:33:28.890Z,56.60
2019-04-30T11:34:28.820Z,55.57
2019-04-30T11:35:29.684Z,57.71
2019-04-30T11:36:29.191Z,56.66
2019-04-30T11:37:28.607Z,57.65
2019-04-30T11:38:29.929Z,56.16
2019-04-30T11:39:29.773Z,57.76
2019-04-30T11:40:34.376Z,52.97
2019-04-30T11:41:32.856Z,52.13
2019-04-30T11:42:28.260Z,49.34
2019-04-30T11:44:31.245Z,49.43
2019-04-30T11:45:29.396Z,49.91
2019-04-30T11:46:28.687Z,50.57
2019-04-30T11:47:27.924Z,48.38
2019-04-30T11:48:28.922Z,48.40
2019-04-30T11:49:27.790Z,51.03
2019-04-30T11:50:30.020Z,46.95
2019-04-30T11:51:29.345Z,45.87
2019-04-30T11:52:27.596Z,45.99
2019-04-30T11:53:30.535Z,47.29
2019-04-30T11:54:29.874Z,44.93
2019-04-30T11:55:29.137Z,45.10
2019-04-30T11:56:27.340Z,45.89
2019-04-30T11:57:27.275Z,47.82
2019-04-30T11:59:27.147Z,43.80
2019-04-30T12:00:27.084Z,43.99
2019-04-30T12:02:26.956Z,46.91
2019-04-30T12:03:28.656Z,45.21
2019-04-30T12:04:29.848Z,43.70
2019-04-30T12:05:28.899Z,42.49
2019-04-30T12:06:28.430Z,43.82
2019-04-30T12:08:54.173Z,43.27
2019-04-30T12:11:01.811Z,44.23
2019-04-30T12:12:59.252Z,44.54
2019-04-30T12:14:51.694Z,40.37
2019-04-30T12:16:39.594Z,39.99
2019-04-30T12:17:39.093Z,41.28
2019-04-30T12:19:30.338Z,38.26
2019-04-30T12:23:45.435Z,37.89
2019-04-30T12:47:04.593Z,38.66
2019-04-30T12:48:07.353Z,36.61
2019-04-30T12:50:39.103Z,36.22
2019-04-30T12:51:45.633Z,34.87
2019-04-30T12:52:36.888Z,37.40
2019-04-30T12:53:37.588Z,36.72
2019-04-30T12:54:36.766Z,36.72
2019-04-30T12:55:36.705Z,36.22
2019-04-30T12:56:36.643Z,38.28
2019-04-30T12:57:36.583Z,39.45
2019-04-30T12:58:36.523Z,37.21
2019-04-30T12:59:36.459Z,38.35
2019-04-30T13:00:36.398Z,40.77
2019-04-30T13:02:29.116Z,37.60
2019-04-30T13:04:16.287Z,34.52
2019-04-30T13:06:16.643Z,37.02
2019-04-30T13:07:16.825Z,37.38
2019-04-30T13:08:16.718Z,38.16
2019-04-30T13:09:16.507Z,39.32
2019-04-30T13:10:16.537Z,40.09
2019-04-30T13:11:16.602Z,40.28
2019-04-30T13:12:16.314Z,40.98
2019-04-30T13:13:16.141Z,39.39
2019-04-30T13:14:16.008Z,39.97
2019-04-30T13:15:15.623Z,40.15
2019-04-30T13:16:15.563Z,40.07
2019-04-30T13:17:15.503Z,41.08
2019-04-30T13:18:15.442Z,40.63
2019-04-30T13:19:15.382Z,38.37
2019-04-30T13:20:21.215Z,39.51
2019-04-30T13:21:15.263Z,40.40
2019-04-30T13:22:15.204Z,39.24
2019-04-30T13:23:15.143Z,37.98
2019-04-30T13:24:15.177Z,38.25
2019-04-30T13:25:27.521Z,39.72
2019-04-30T13:26:14.963Z,38.37
2019-04-30T13:27:14.904Z,37.98
2019-04-30T13:28:14.843Z,38.83
2019-04-30T13:29:14.785Z,39.92
2019-04-30T13:30:14.724Z,40.05
2019-04-30T13:31:14.663Z,39.47
2019-04-30T13:32:14.605Z,37.70
2019-04-30T13:33:14.545Z,38.23
2019-04-30T13:34:14.484Z,40.88
2019-04-30T13:35:14.424Z,38.97
2019-04-30T13:36:14.364Z,37.50
2019-04-30T13:37:14.306Z,39.28
2019-04-30T13:38:14.246Z,38.00
2019-04-30T13:39:14.214Z,38.00
2019-04-30T13:40:14.127Z,38.12
2019-04-30T13:41:14.076Z,40.25
2019-04-30T13:42:17.667Z,38.41
2019-04-30T13:43:13.947Z,36.46
2019-04-30T13:44:13.887Z,37.90
2019-04-30T13:45:13.828Z,38.79
2019-04-30T13:46:13.767Z,41.58
2019-04-30T13:47:13.708Z,39.55
2019-04-30T13:48:13.650Z,37.67
2019-04-30T13:49:13.590Z,38.25
2019-04-30T13:50:13.529Z,38.62
2019-04-30T13:51:13.469Z,38.23
2019-04-30T13:52:13.409Z,38.60
2019-04-30T13:53:13.350Z,39.54
2019-04-30T13:54:13.289Z,39.28
2019-04-30T13:55:13.233Z,38.89
2019-04-30T13:56:13.169Z,38.70
2019-04-30T13:57:13.109Z,39.76
2019-04-30T13:58:13.052Z,39.70
2019-04-30T13:59:12.988Z,39.90
2019-04-30T14:00:12.926Z,40.23
2019-04-30T14:01:12.865Z,40.05
2019-04-30T14:02:12.805Z,37.81